Kezdőlap
METAR-TAF:

METAR-TAF

Repülőterek :

Brno, Csehország

földrajzi szélesség: 49-09N, földrajzi hosszúság: 016-42E, magasság: 241 m

Jelenlegi meteorológiai megfigyelések

A jelentés 16 perccel ezelõtt készült, 05:30 UTC
Keleti szél 6 kt
Hőmérséklet -3°C
Páratartalom 86%
Légköri nyomás 1015 hPa
Látótávolság 10 km, vagy több
felhőtlen 1500 m magasságban, és nincs gomolyfelhõ

METAR: LKTB 200530Z 08006KT CAVOK M03/M05 Q1015 NOSIG

Idő: 06:46 (05:46 UTC)

Előrejelzés

A jelentés 46 perccel ezelõtt készült, 05:00 UTC
Az előrejelzés 20-én 06 óra UTC és 21-én 12 óra UTC között érvényes
Kelet-északkeleti szél 6 kt
Látótávolság 10 km, vagy több
Szakadozott felhőzet 4500 lábon
20-én 21 óra UTC és 20-én 23 óra UTC között fokozatosan kialakuló
Észak-északnyugati szél 2 kt
Látótávolság 10 km, vagy több
felhőtlen 1500 m magasságban, és nincs gomolyfelhõ

TAF: LKTB 200500Z 2006/2112 07006KT 9999 BKN045 BECMG 2021/2023 33002KT CAVOK

Meteorológiai megfigyelések és előrejelzések több, mint 4000 repülőtéren (METAR és TAF jelentéseket).

A térképen piros és sárga pontok jelzik az elérhető meteorológiai állomásokat.

Mozgassa az egeret a pont fölött, hogy megjelenjen az állomás neve.

Azután kattintson az időjárási megfigyelések és előrejelzések megtekintéséhez.

A térkép megváltoztatása: kattintson a fekete keresztel jelölt zöld gombra ráközelítéshez, a vonallal jelölt zöld gombra távolításhoz, vagy a zöld nyilakra a szomszédos térképek eléréséhez.


METAR-TAF: